sensor_id;sensor_type;location;lat;lon;timestamp;pressure;altitude;pressure_sealevel;temperature;humidity
60337;BME280;46978;50.288;28.624;2023-02-04T00:00:58;98628.30;;;-5.29;87.87
60337;BME280;46978;50.288;28.624;2023-02-04T00:02:00;98631.66;;;-5.30;87.79
60337;BME280;46978;50.288;28.624;2023-02-04T00:03:02;98634.14;;;-5.31;87.76
60337;BME280;46978;50.288;28.624;2023-02-04T00:04:04;98633.26;;;-5.32;88.02
60337;BME280;46978;50.288;28.624;2023-02-04T00:05:06;98633.31;;;-5.30;88.41
60337;BME280;46978;50.288;28.624;2023-02-04T00:06:09;98630.83;;;-5.29;88.81
60337;BME280;46978;50.288;28.624;2023-02-04T00:07:10;98638.47;;;-5.27;89.21
60337;BME280;46978;50.288;28.624;2023-02-04T00:08:12;98634.31;;;-5.25;89.56
60337;BME280;46978;50.288;28.624;2023-02-04T00:09:14;98636.89;;;-5.24;89.70
60337;BME280;46978;50.288;28.624;2023-02-04T00:10:16;98635.29;;;-5.22;89.62
60337;BME280;46978;50.288;28.624;2023-02-04T00:11:17;98641.15;;;-5.23;89.40
60337;BME280;46978;50.288;28.624;2023-02-04T00:12:19;98636.89;;;-5.24;89.23
60337;BME280;46978;50.288;28.624;2023-02-04T00:13:21;98639.37;;;-5.25;88.97
60337;BME280;46978;50.288;28.624;2023-02-04T00:14:22;98635.14;;;-5.26;89.13
60337;BME280;46978;50.288;28.624;2023-02-04T00:15:24;98630.08;;;-5.26;89.23
60337;BME280;46978;50.288;28.624;2023-02-04T00:16:26;98635.24;;;-5.23;89.44
60337;BME280;46978;50.288;28.624;2023-02-04T00:17:27;98637.83;;;-5.22;89.62
60337;BME280;46978;50.288;28.624;2023-02-04T00:18:29;98634.52;;;-5.19;89.68
60337;BME280;46978;50.288;28.624;2023-02-04T00:19:30;98632.97;;;-5.15;89.72
60337;BME280;46978;50.288;28.624;2023-02-04T00:20:33;98633.86;;;-5.13;89.54
60337;BME280;46978;50.288;28.624;2023-02-04T00:21:34;98635.54;;;-5.14;89.17
60337;BME280;46978;50.288;28.624;2023-02-04T00:22:36;98635.49;;;-5.15;88.98
60337;BME280;46978;50.288;28.624;2023-02-04T00:23:38;98630.38;;;-5.17;89.01
60337;BME280;46978;50.288;28.624;2023-02-04T00:24:40;98633.71;;;-5.18;88.92
60337;BME280;46978;50.288;28.624;2023-02-04T00:25:41;98635.45;;;-5.17;89.01
60337;BME280;46978;50.288;28.624;2023-02-04T00:26:43;98626.97;;;-5.17;89.02
60337;BME280;46978;50.288;28.624;2023-02-04T00:27:45;98622.80;;;-5.17;89.03
60337;BME280;46978;50.288;28.624;2023-02-04T00:28:47;98628.80;;;-5.13;89.18
60337;BME280;46978;50.288;28.624;2023-02-04T00:29:49;98629.66;;;-5.13;89.24
60337;BME280;46978;50.288;28.624;2023-02-04T00:30:50;98625.47;;;-5.12;89.10
60337;BME280;46978;50.288;28.624;2023-02-04T00:31:52;98632.23;;;-5.11;88.87
60337;BME280;46978;50.288;28.624;2023-02-04T00:32:54;98633.96;;;-5.10;88.77
60337;BME280;46978;50.288;28.624;2023-02-04T00:33:55;98637.29;;;-5.11;88.20
60337;BME280;46978;50.288;28.624;2023-02-04T00:34:57;98630.53;;;-5.12;87.66
60337;BME280;46978;50.288;28.624;2023-02-04T00:35:58;98634.66;;;-5.14;87.36
60337;BME280;46978;50.288;28.624;2023-02-04T00:37:00;98637.19;;;-5.14;87.60
60337;BME280;46978;50.288;28.624;2023-02-04T00:38:03;98640.55;;;-5.15;87.67
60337;BME280;46978;50.288;28.624;2023-02-04T00:39:05;98633.81;;;-5.15;87.80
60337;BME280;46978;50.288;28.624;2023-02-04T00:40:08;98627.08;;;-5.14;87.92
60337;BME280;46978;50.288;28.624;2023-02-04T00:41:10;98627.08;;;-5.14;88.01
60337;BME280;46978;50.288;28.624;2023-02-04T00:42:12;98630.48;;;-5.14;88.13
60337;BME280;46978;50.288;28.624;2023-02-04T00:43:14;98627.02;;;-5.16;88.26
60337;BME280;46978;50.288;28.624;2023-02-04T00:44:15;98619.34;;;-5.19;88.32
60337;BME280;46978;50.288;28.624;2023-02-04T00:45:17;98620.87;;;-5.24;88.57
60337;BME280;46978;50.288;28.624;2023-02-04T00:46:20;98615.66;;;-5.29;88.88
60337;BME280;46978;50.288;28.624;2023-02-04T00:47:21;98612.92;;;-5.35;88.99
60337;BME280;46978;50.288;28.624;2023-02-04T00:48:23;98616.14;;;-5.41;88.84
60337;BME280;46978;50.288;28.624;2023-02-04T00:49:24;98611.67;;;-5.48;89.07
60337;BME280;46978;50.288;28.624;2023-02-04T00:50:26;98611.52;;;-5.52;89.48
60337;BME280;46978;50.288;28.624;2023-02-04T00:51:28;98616.31;;;-5.60;89.13
60337;BME280;46978;50.288;28.624;2023-02-04T00:52:29;98615.26;;;-5.67;89.34
60337;BME280;46978;50.288;28.624;2023-02-04T00:53:31;98609.99;;;-5.73;89.32
60337;BME280;46978;50.288;28.624;2023-02-04T00:54:33;98614.01;;;-5.78;89.50
60337;BME280;46978;50.288;28.624;2023-02-04T00:55:34;98614.73;;;-5.82;90.06
60337;BME280;46978;50.288;28.624;2023-02-04T00:56:36;98608.80;;;-5.83;92.26
60337;BME280;46978;50.288;28.624;2023-02-04T00:57:38;98608.80;;;-5.83;93.48
60337;BME280;46978;50.288;28.624;2023-02-04T00:58:40;98612.05;;;-5.87;93.03
60337;BME280;46978;50.288;28.624;2023-02-04T00:59:41;98611.00;;;-5.92;92.46
60337;BME280;46978;50.288;28.624;2023-02-04T01:00:43;98615.92;;;-5.97;92.16
60337;BME280;46978;50.288;28.624;2023-02-04T01:01:45;98611.59;;;-6.01;91.93
60337;BME280;46978;50.288;28.624;2023-02-04T01:02:47;98609.80;;;-6.03;91.77
60337;BME280;46978;50.288;28.624;2023-02-04T01:03:49;98611.32;;;-6.08;91.20
60337;BME280;46978;50.288;28.624;2023-02-04T01:04:50;98606.95;;;-6.13;91.15
60337;BME280;46978;50.288;28.624;2023-02-04T01:05:52;98610.16;;;-6.17;91.28
60337;BME280;46978;50.288;28.624;2023-02-04T01:07:14;98606.67;;;-6.20;91.49
60337;BME280;46978;50.288;28.624;2023-02-04T01:08:16;98609.94;;;-6.23;92.34
60337;BME280;46978;50.288;28.624;2023-02-04T01:09:17;98614.83;;;-6.27;92.45
60337;BME280;46978;50.288;28.624;2023-02-04T01:10:20;98608.02;;;-6.30;92.48
60337;BME280;46978;50.288;28.624;2023-02-04T01:11:21;98614.59;;;-6.34;92.47
60337;BME280;46978;50.288;28.624;2023-02-04T01:12:23;98606.00;;;-6.39;92.44
60337;BME280;46978;50.288;28.624;2023-02-04T01:13:25;98611.84;;;-6.40;92.55
60337;BME280;46978;50.288;28.624;2023-02-04T01:14:27;98611.73;;;-6.43;92.80
60337;BME280;46978;50.288;28.624;2023-02-04T01:15:28;98609.09;;;-6.46;92.91
60337;BME280;46978;50.288;28.624;2023-02-04T01:16:30;98609.04;;;-6.47;92.97
60337;BME280;46978;50.288;28.624;2023-02-04T01:17:32;98608.92;;;-6.51;92.70
60337;BME280;46978;50.288;28.624;2023-02-04T01:18:34;98606.28;;;-6.54;92.43
60337;BME280;46978;50.288;28.624;2023-02-04T01:19:36;98611.22;;;-6.57;92.28
60337;BME280;46978;50.288;28.624;2023-02-04T01:20:38;98610.25;;;-6.60;92.17
60337;BME280;46978;50.288;28.624;2023-02-04T01:21:39;98610.96;;;-6.64;92.21
60337;BME280;46978;50.288;28.624;2023-02-04T01:22:41;98609.23;;;-6.65;92.48
60337;BME280;46978;50.288;28.624;2023-02-04T01:23:43;98618.41;;;-6.68;92.69
60337;BME280;46978;50.288;28.624;2023-02-04T01:24:45;98618.36;;;-6.69;93.47
60337;BME280;46978;50.288;28.624;2023-02-04T01:25:46;98617.53;;;-6.68;94.71
60337;BME280;46978;50.288;28.624;2023-02-04T01:26:48;98611.64;;;-6.69;94.97
60337;BME280;46978;50.288;28.624;2023-02-04T01:27:50;98615.77;;;-6.71;94.85
60337;BME280;46978;50.288;28.624;2023-02-04T01:28:51;98615.77;;;-6.71;95.60
60337;BME280;46978;50.288;28.624;2023-02-04T01:29:53;98618.30;;;-6.71;95.62
60337;BME280;46978;50.288;28.624;2023-02-04T01:30:55;98616.56;;;-6.72;95.45
60337;BME280;46978;50.288;28.624;2023-02-04T01:31:57;98619.03;;;-6.73;95.47
60337;BME280;46978;50.288;28.624;2023-02-04T01:32:58;98615.59;;;-6.75;95.32
60337;BME280;46978;50.288;28.624;2023-02-04T01:34:00;98623.11;;;-6.77;95.14
60337;BME280;46978;50.288;28.624;2023-02-04T01:35:02;98618.80;;;-6.79;94.96
60337;BME280;46978;50.288;28.624;2023-02-04T01:36:05;98630.56;;;-6.80;94.82
60337;BME280;46978;50.288;28.624;2023-02-04T01:37:07;98622.05;;;-6.82;94.72
60337;BME280;46978;50.288;28.624;2023-02-04T01:38:08;98620.34;;;-6.83;94.67
60337;BME280;46978;50.288;28.624;2023-02-04T01:39:10;98616.09;;;-6.84;94.80
60337;BME280;46978;50.288;28.624;2023-02-04T01:40:12;98624.52;;;-6.83;94.95
60337;BME280;46978;50.288;28.624;2023-02-04T01:41:15;98616.94;;;-6.83;94.94
60337;BME280;46978;50.288;28.624;2023-02-04T01:42:17;98616.09;;;-6.84;95.05
60337;BME280;46978;50.288;28.624;2023-02-04T01:43:20;98615.36;;;-6.81;95.21
60337;BME280;46978;50.288;28.624;2023-02-04T01:44:21;98622.11;;;-6.80;95.26
60337;BME280;46978;50.288;28.624;2023-02-04T01:45:23;98620.47;;;-6.80;95.20
60337;BME280;46978;50.288;28.624;2023-02-04T01:46:25;98621.37;;;-6.78;95.01
60337;BME280;46978;50.288;28.624;2023-02-04T01:47:27;98620.47;;;-6.80;94.68
60337;BME280;46978;50.288;28.624;2023-02-04T01:48:29;98623.84;;;-6.79;94.59
60337;BME280;46978;50.288;28.624;2023-02-04T01:49:31;98620.47;;;-6.80;94.75
60337;BME280;46978;50.288;28.624;2023-02-04T01:50:33;98617.94;;;-6.80;94.90
60337;BME280;46978;50.288;28.624;2023-02-04T01:51:36;98617.88;;;-6.81;95.00
60337;BME280;46978;50.288;28.624;2023-02-04T01:54:01;98618.67;;;-6.82;95.55
60337;BME280;46978;50.288;28.624;2023-02-04T01:55:03;98608.64;;;-6.81;95.97
60337;BME280;46978;50.288;28.624;2023-02-04T01:56:17;98612.78;;;-6.83;96.48
60337;BME280;46978;50.288;28.624;2023-02-04T01:57:20;98606.06;;;-6.82;96.87
60337;BME280;46978;50.288;28.624;2023-02-04T01:58:21;98607.73;;;-6.83;96.78
60337;BME280;46978;50.288;28.624;2023-02-04T01:59:23;98608.52;;;-6.84;96.84
60337;BME280;46978;50.288;28.624;2023-02-04T02:00:28;98606.73;;;-6.87;96.58
60337;BME280;46978;50.288;28.624;2023-02-04T02:01:40;98606.61;;;-6.90;96.39
60337;BME280;46978;50.288;28.624;2023-02-04T02:02:51;98610.81;;;-6.90;96.49
60337;BME280;46978;50.288;28.624;2023-02-04T02:03:49;98605.77;;;-6.90;96.51
60337;BME280;46978;50.288;28.624;2023-02-04T02:04:51;98605.77;;;-6.90;96.65
60337;BME280;46978;50.288;28.624;2023-02-04T02:05:54;98611.66;;;-6.90;96.71
60337;BME280;46978;50.288;28.624;2023-02-04T02:07:00;98603.24;;;-6.90;96.78
60337;BME280;46978;50.288;28.624;2023-02-04T02:08:04;98603.24;;;-6.90;96.30
60337;BME280;46978;50.288;28.624;2023-02-04T02:09:06;98603.80;;;-6.97;95.42
60337;BME280;46978;50.288;28.624;2023-02-04T02:10:10;98603.80;;;-6.97;95.42
60337;BME280;46978;50.288;28.624;2023-02-04T02:11:13;98607.08;;;-7.00;95.32
60337;BME280;46978;50.288;28.624;2023-02-04T02:12:15;98609.60;;;-7.00;95.75
60337;BME280;46978;50.288;28.624;2023-02-04T02:13:17;98612.97;;;-6.99;95.77
60337;BME280;46978;50.288;28.624;2023-02-04T02:14:20;98614.64;;;-7.00;95.82
60337;BME280;46978;50.288;28.624;2023-02-04T02:15:23;98613.03;;;-6.98;96.26
60337;BME280;46978;50.288;28.624;2023-02-04T02:16:25;98615.55;;;-6.98;96.23
60337;BME280;46978;50.288;28.624;2023-02-04T02:17:27;98613.88;;;-6.97;96.38
60337;BME280;46978;50.288;28.624;2023-02-04T02:18:28;98622.39;;;-6.95;96.57
60337;BME280;46978;50.288;28.624;2023-02-04T02:19:32;98613.16;;;-6.95;96.59
60337;BME280;46978;50.288;28.624;2023-02-04T02:20:36;98613.16;;;-6.95;96.48
60337;BME280;46978;50.288;28.624;2023-02-04T02:21:48;98615.73;;;-6.93;96.58
60337;BME280;46978;50.288;28.624;2023-02-04T02:23:57;98613.22;;;-6.93;96.96
60337;BME280;46978;50.288;28.624;2023-02-04T02:24:59;98614.00;;;-6.94;96.81
60337;BME280;46978;50.288;28.624;2023-02-04T02:26:01;98616.52;;;-6.94;96.86
60337;BME280;46978;50.288;28.624;2023-02-04T02:27:05;98614.83;;;-6.95;96.86
60337;BME280;46978;50.288;28.624;2023-02-04T02:28:14;98614.77;;;-6.97;96.81
60337;BME280;46978;50.288;28.624;2023-02-04T02:29:16;98613.88;;;-6.97;96.75
60337;BME280;46978;50.288;28.624;2023-02-04T02:30:18;98615.44;;;-7.01;96.56
60337;BME280;46978;50.288;28.624;2023-02-04T02:31:21;98615.31;;;-7.04;96.58
60337;BME280;46978;50.288;28.624;2023-02-04T02:32:24;98614.52;;;-7.03;97.08
60337;BME280;46978;50.288;28.624;2023-02-04T02:33:26;98616.16;;;-7.04;97.12
60337;BME280;46978;50.288;28.624;2023-02-04T02:34:28;98613.64;;;-7.04;97.31
60337;BME280;46978;50.288;28.624;2023-02-04T02:35:31;98626.25;;;-7.04;97.38
60337;BME280;46978;50.288;28.624;2023-02-04T02:36:33;98618.75;;;-7.02;97.73
60337;BME280;46978;50.288;28.624;2023-02-04T02:37:35;98626.38;;;-7.00;97.74
60337;BME280;46978;50.288;28.624;2023-02-04T02:38:37;98628.89;;;-7.00;97.73
60337;BME280;46978;50.288;28.624;2023-02-04T02:39:42;98631.48;;;-6.99;97.42
60337;BME280;46978;50.288;28.624;2023-02-04T02:40:46;98631.48;;;-6.99;97.42
60337;BME280;46978;50.288;28.624;2023-02-04T02:41:48;98632.30;;;-7.00;97.71
60337;BME280;46978;50.288;28.624;2023-02-04T02:42:51;98633.09;;;-7.01;97.65
60337;BME280;46978;50.288;28.624;2023-02-04T02:43:54;98634.76;;;-7.01;97.84
60337;BME280;46978;50.288;28.624;2023-02-04T02:44:56;98632.23;;;-7.01;97.79
60337;BME280;46978;50.288;28.624;2023-02-04T02:45:59;98634.76;;;-7.01;97.49
60337;BME280;46978;50.288;28.624;2023-02-04T02:47:02;98642.27;;;-7.03;97.24
60337;BME280;46978;50.288;28.624;2023-02-04T02:48:03;98641.44;;;-7.02;97.45
60337;BME280;46978;50.288;28.624;2023-02-04T02:49:07;98634.88;;;-6.98;97.69
60337;BME280;46978;50.288;28.624;2023-02-04T03:04:01;98645.76;;;-6.99;97.84
60337;BME280;46978;50.288;28.624;2023-02-04T03:05:03;98642.74;;;-7.12;97.54
60337;BME280;46978;50.288;28.624;2023-02-04T03:06:09;98651.03;;;-7.14;97.29
60337;BME280;46978;50.288;28.624;2023-02-04T03:07:14;98650.06;;;-7.18;97.24
60337;BME280;46978;50.288;28.624;2023-02-04T03:08:16;98653.37;;;-7.19;97.46
60337;BME280;46978;50.288;28.624;2023-02-04T03:09:19;98644.89;;;-7.21;97.60
60337;BME280;46978;50.288;28.624;2023-02-04T03:10:21;98659.23;;;-7.20;97.94
60337;BME280;46978;50.288;28.624;2023-02-04T03:11:23;98655.04;;;-7.19;98.10
60337;BME280;46978;50.288;28.624;2023-02-04T03:12:25;98656.77;;;-7.18;98.19
60337;BME280;46978;50.288;28.624;2023-02-04T03:13:27;98658.41;;;-7.19;98.18
60337;BME280;46978;50.288;28.624;2023-02-04T03:14:29;98658.47;;;-7.17;98.21
60337;BME280;46978;50.288;28.624;2023-02-04T03:15:31;98652.64;;;-7.16;98.25
60337;BME280;46978;50.288;28.624;2023-02-04T03:16:35;98652.70;;;-7.15;98.25
60337;BME280;46978;50.288;28.624;2023-02-04T03:17:38;98649.39;;;-7.14;98.38
60337;BME280;46978;50.288;28.624;2023-02-04T03:18:40;98651.16;;;-7.11;98.68
60337;BME280;46978;50.288;28.624;2023-02-04T03:19:42;98655.41;;;-7.10;98.96
60337;BME280;46978;50.288;28.624;2023-02-04T03:20:44;98652.95;;;-7.09;99.10
60337;BME280;46978;50.288;28.624;2023-02-04T03:21:46;98657.20;;;-7.08;98.94
60337;BME280;46978;50.288;28.624;2023-02-04T03:22:48;98656.33;;;-7.08;98.97
60337;BME280;46978;50.288;28.624;2023-02-04T03:23:50;98652.95;;;-7.09;98.81
60337;BME280;46978;50.288;28.624;2023-02-04T03:24:51;98663.03;;;-7.09;98.65
60337;BME280;46978;50.288;28.624;2023-02-04T03:27:18;98658.06;;;-7.07;98.62
60337;BME280;46978;50.288;28.624;2023-02-04T03:28:19;98655.53;;;-7.07;98.42
60337;BME280;46978;50.288;28.624;2023-02-04T03:29:21;98653.86;;;-7.07;98.43
60337;BME280;46978;50.288;28.624;2023-02-04T03:30:24;98653.92;;;-7.05;98.46
60337;BME280;46978;50.288;28.624;2023-02-04T03:31:26;98658.97;;;-7.05;98.35
60337;BME280;46978;50.288;28.624;2023-02-04T03:32:28;98661.55;;;-7.04;98.09
60337;BME280;46978;50.288;28.624;2023-02-04T03:33:29;98654.81;;;-7.05;97.86
60337;BME280;46978;50.288;28.624;2023-02-04T03:34:31;98657.33;;;-7.05;97.65
60337;BME280;46978;50.288;28.624;2023-02-04T03:35:33;98657.33;;;-7.05;97.62
60337;BME280;46978;50.288;28.624;2023-02-04T03:36:35;98646.42;;;-7.04;97.64
60337;BME280;46978;50.288;28.624;2023-02-04T03:37:36;98651.47;;;-7.04;97.67
60337;BME280;46978;50.288;28.624;2023-02-04T03:38:38;98655.78;;;-7.01;97.62
60337;BME280;46978;50.288;28.624;2023-02-04T03:39:40;98649.06;;;-7.00;97.49
60337;BME280;46978;50.288;28.624;2023-02-04T03:40:42;98657.58;;;-6.98;97.47
60337;BME280;46978;50.288;28.624;2023-02-04T03:41:44;98648.34;;;-6.98;97.48
60337;BME280;46978;50.288;28.624;2023-02-04T03:42:45;98644.14;;;-6.97;97.54
60337;BME280;46978;50.288;28.624;2023-02-04T03:43:47;98650.13;;;-6.95;97.59
60337;BME280;46978;50.288;28.624;2023-02-04T03:44:48;98657.76;;;-6.94;97.58
60337;BME280;46978;50.288;28.624;2023-02-04T03:45:50;98649.38;;;-6.93;97.47
60337;BME280;46978;50.288;28.624;2023-02-04T03:46:52;98645.15;;;-6.94;97.09
60337;BME280;46978;50.288;28.624;2023-02-04T03:47:54;98645.94;;;-6.95;96.69
60337;BME280;46978;50.288;28.624;2023-02-04T03:48:56;98653.44;;;-6.96;96.58
60337;BME280;46978;50.288;28.624;2023-02-04T03:49:57;98645.09;;;-6.95;96.75
60337;BME280;46978;50.288;28.624;2023-02-04T03:50:59;98652.66;;;-6.95;96.95
60337;BME280;46978;50.288;28.624;2023-02-04T03:52:04;98646.91;;;-6.91;98.00
60337;BME280;46978;50.288;28.624;2023-02-04T03:53:07;98649.00;;;-6.81;100.00
60337;BME280;46978;50.288;28.624;2023-02-04T03:54:08;98645.88;;;-6.75;100.00
60337;BME280;46978;50.288;28.624;2023-02-04T03:55:10;98648.39;;;-6.75;100.00
60337;BME280;46978;50.288;28.624;2023-02-04T03:56:13;98647.45;;;-6.77;100.00
60337;BME280;46978;50.288;28.624;2023-02-04T03:57:14;98649.12;;;-6.78;99.60
60337;BME280;46978;50.288;28.624;2023-02-04T03:58:16;98650.80;;;-6.78;99.30
60337;BME280;46978;50.288;28.624;2023-02-04T03:59:18;98654.95;;;-6.79;99.15
60337;BME280;46978;50.288;28.624;2023-02-04T04:00:20;98647.39;;;-6.79;99.01
60337;BME280;46978;50.288;28.624;2023-02-04T04:01:22;98650.80;;;-6.78;98.83
60337;BME280;46978;50.288;28.624;2023-02-04T04:02:24;98650.86;;;-6.77;98.66
60337;BME280;46978;50.288;28.624;2023-02-04T04:03:25;98650.86;;;-6.77;98.55
60337;BME280;46978;50.288;28.624;2023-02-04T04:04:27;98657.60;;;-6.76;98.52
60337;BME280;46978;50.288;28.624;2023-02-04T04:05:29;98661.01;;;-6.75;98.51
60337;BME280;46978;50.288;28.624;2023-02-04T04:06:31;98656.88;;;-6.73;98.46
60337;BME280;46978;50.288;28.624;2023-02-04T04:07:32;98655.14;;;-6.74;98.39
60337;BME280;46978;50.288;28.624;2023-02-04T04:08:34;98662.77;;;-6.73;98.21
60337;BME280;46978;50.288;28.624;2023-02-04T04:09:36;98662.83;;;-6.71;98.10
60337;BME280;46978;50.288;28.624;2023-02-04T04:10:38;98652.73;;;-6.71;98.10
60337;BME280;46978;50.288;28.624;2023-02-04T04:11:40;98661.98;;;-6.72;98.06
60337;BME280;46978;50.288;28.624;2023-02-04T04:12:41;98661.19;;;-6.71;98.04
60337;BME280;46978;50.288;28.624;2023-02-04T04:13:43;98663.77;;;-6.69;98.07
60337;BME280;46978;50.288;28.624;2023-02-04T04:14:44;98665.41;;;-6.70;98.10
60337;BME280;46978;50.288;28.624;2023-02-04T04:15:46;98666.35;;;-6.68;98.15
60337;BME280;46978;50.288;28.624;2023-02-04T04:16:48;98662.16;;;-6.67;98.22
60337;BME280;46978;50.288;28.624;2023-02-04T04:17:50;98666.35;;;-6.68;98.19
60337;BME280;46978;50.288;28.624;2023-02-04T04:18:52;98676.50;;;-6.66;98.10
60337;BME280;46978;50.288;28.624;2023-02-04T04:19:53;98667.20;;;-6.67;98.00
60337;BME280;46978;50.288;28.624;2023-02-04T04:20:55;98672.25;;;-6.67;97.67
60337;BME280;46978;50.288;28.624;2023-02-04T04:21:57;98677.23;;;-6.69;97.57
60337;BME280;46978;50.288;28.624;2023-02-04T04:22:59;98676.45;;;-6.68;97.63
60337;BME280;46978;50.288;28.624;2023-02-04T04:24:01;98679.75;;;-6.69;97.49
60337;BME280;46978;50.288;28.624;2023-02-04T04:25:04;98678.08;;;-6.68;97.52
60337;BME280;46978;50.288;28.624;2023-02-04T04:26:06;98677.23;;;-6.69;97.55
60337;BME280;46978;50.288;28.624;2023-02-04T04:27:08;98682.28;;;-6.69;97.57
60337;BME280;46978;50.288;28.624;2023-02-04T04:28:10;98678.08;;;-6.68;97.52
60337;BME280;46978;50.288;28.624;2023-02-04T04:29:12;98680.61;;;-6.68;97.40
60337;BME280;46978;50.288;28.624;2023-02-04T04:30:14;98674.71;;;-6.69;97.39
60337;BME280;46978;50.288;28.624;2023-02-04T04:31:16;98673.92;;;-6.68;97.38
60337;BME280;46978;50.288;28.624;2023-02-04T04:32:17;98676.45;;;-6.68;97.34
60337;BME280;46978;50.288;28.624;2023-02-04T04:33:19;98680.67;;;-6.67;97.36
60337;BME280;46978;50.288;28.624;2023-02-04T04:34:20;98674.77;;;-6.67;97.40
60337;BME280;46978;50.288;28.624;2023-02-04T04:35:22;98679.03;;;-6.66;97.47
60337;BME280;46978;50.288;28.624;2023-02-04T04:36:24;98677.35;;;-6.65;97.50
60337;BME280;46978;50.288;28.624;2023-02-04T04:37:25;98672.31;;;-6.65;97.57
60337;BME280;46978;50.288;28.624;2023-02-04T04:38:27;98679.09;;;-6.64;97.58
60337;BME280;46978;50.288;28.624;2023-02-04T04:39:29;98681.55;;;-6.66;97.45
60337;BME280;46978;50.288;28.624;2023-02-04T04:40:31;98675.50;;;-6.70;97.39
60337;BME280;46978;50.288;28.624;2023-02-04T04:41:32;98676.27;;;-6.72;97.85
60337;BME280;46978;50.288;28.624;2023-02-04T04:42:34;98673.68;;;-6.74;98.06
60337;BME280;46978;50.288;28.624;2023-02-04T04:43:36;98671.95;;;-6.75;98.13
60337;BME280;46978;50.288;28.624;2023-02-04T04:44:37;98678.61;;;-6.77;98.13
60337;BME280;46978;50.288;28.624;2023-02-04T04:45:39;98682.83;;;-6.76;98.22
60337;BME280;46978;50.288;28.624;2023-02-04T04:46:41;98674.34;;;-6.78;98.20
60337;BME280;46978;50.288;28.624;2023-02-04T04:47:42;98681.06;;;-6.78;98.19
60337;BME280;46978;50.288;28.624;2023-02-04T04:48:44;98681.13;;;-6.77;98.15
60337;BME280;46978;50.288;28.624;2023-02-04T04:49:46;98683.65;;;-6.77;97.95
60337;BME280;46978;50.288;28.624;2023-02-04T04:50:47;98689.48;;;-6.78;97.96
60337;BME280;46978;50.288;28.624;2023-02-04T04:51:49;98685.23;;;-6.79;97.80
60337;BME280;46978;50.288;28.624;2023-02-04T04:52:51;98692.80;;;-6.79;97.54
60337;BME280;46978;50.288;28.624;2023-02-04T04:53:53;98685.17;;;-6.80;97.30
60337;BME280;46978;50.288;28.624;2023-02-04T04:54:54;98690.16;;;-6.82;97.14
60337;BME280;46978;50.288;28.624;2023-02-04T04:55:56;98690.16;;;-6.82;97.31
60337;BME280;46978;50.288;28.624;2023-02-04T04:56:58;98689.30;;;-6.82;97.54
60337;BME280;46978;50.288;28.624;2023-02-04T04:57:59;98692.67;;;-6.82;97.79
60337;BME280;46978;50.288;28.624;2023-02-04T04:59:01;98691.89;;;-6.81;98.24
60337;BME280;46978;50.288;28.624;2023-02-04T05:00:04;98694.47;;;-6.79;98.54
60337;BME280;46978;50.288;28.624;2023-02-04T05:01:06;98687.75;;;-6.79;98.62
60337;BME280;46978;50.288;28.624;2023-02-04T05:02:08;98700.36;;;-6.79;98.61
60337;BME280;46978;50.288;28.624;2023-02-04T05:03:10;98702.09;;;-6.78;98.45
60337;BME280;46978;50.288;28.624;2023-02-04T05:04:11;98701.25;;;-6.78;98.23
60337;BME280;46978;50.288;28.624;2023-02-04T05:05:13;98705.41;;;-6.79;98.14
60337;BME280;46978;50.288;28.624;2023-02-04T05:06:15;98708.75;;;-6.80;98.48
60337;BME280;46978;50.288;28.624;2023-02-04T05:07:17;98708.75;;;-6.80;98.48
60337;BME280;46978;50.288;28.624;2023-02-04T05:08:18;98715.56;;;-6.77;98.41
60337;BME280;46978;50.288;28.624;2023-02-04T05:09:20;98710.58;;;-6.76;98.29
60337;BME280;46978;50.288;28.624;2023-02-04T05:10:22;98709.79;;;-6.75;98.25
60337;BME280;46978;50.288;28.624;2023-02-04T05:11:24;98717.42;;;-6.73;98.24
60337;BME280;46978;50.288;28.624;2023-02-04T05:12:25;98715.81;;;-6.71;98.22
60337;BME280;46978;50.288;28.624;2023-02-04T05:13:27;98719.21;;;-6.71;97.96
60337;BME280;46978;50.288;28.624;2023-02-04T05:14:29;98717.55;;;-6.70;97.90
60337;BME280;46978;50.288;28.624;2023-02-04T05:15:30;98716.75;;;-6.69;97.88
60337;BME280;46978;50.288;28.624;2023-02-04T05:16:32;98716.81;;;-6.68;97.71
60337;BME280;46978;50.288;28.624;2023-02-04T05:17:34;98720.19;;;-6.67;97.44
60337;BME280;46978;50.288;28.624;2023-02-04T05:18:35;98726.02;;;-6.68;97.16
60337;BME280;46978;50.288;28.624;2023-02-04T05:19:37;98717.66;;;-6.67;97.00
60337;BME280;46978;50.288;28.624;2023-02-04T05:20:39;98714.29;;;-6.68;96.82
60337;BME280;46978;50.288;28.624;2023-02-04T05:21:40;98727.03;;;-6.64;96.75
60337;BME280;46978;50.288;28.624;2023-02-04T05:22:42;98721.16;;;-6.63;96.56
60337;BME280;46978;50.288;28.624;2023-02-04T05:23:44;98726.20;;;-6.63;96.42
60337;BME280;46978;50.288;28.624;2023-02-04T05:24:45;98727.94;;;-6.62;96.40
60337;BME280;46978;50.288;28.624;2023-02-04T05:25:47;98725.48;;;-6.61;96.56
60337;BME280;46978;50.288;28.624;2023-02-04T05:26:49;98725.54;;;-6.59;96.70
60337;BME280;46978;50.288;28.624;2023-02-04T05:27:50;98727.30;;;-6.57;96.71
60337;BME280;46978;50.288;28.624;2023-02-04T05:28:52;98727.36;;;-6.55;96.67
60337;BME280;46978;50.288;28.624;2023-02-04T05:29:54;98729.95;;;-6.54;96.46
60337;BME280;46978;50.288;28.624;2023-02-04T05:30:56;98731.68;;;-6.53;96.52
60337;BME280;46978;50.288;28.624;2023-02-04T05:31:57;98731.73;;;-6.51;96.39
60337;BME280;46978;50.288;28.624;2023-02-04T05:32:59;98739.38;;;-6.50;96.49
60337;BME280;46978;50.288;28.624;2023-02-04T05:34:01;98739.55;;;-6.45;96.62
60337;BME280;46978;50.288;28.624;2023-02-04T05:35:03;98737.14;;;-6.42;96.70
60337;BME280;46978;50.288;28.624;2023-02-04T05:36:06;98738.94;;;-6.39;96.74
60337;BME280;46978;50.288;28.624;2023-02-04T05:37:07;98740.70;;;-6.37;96.40
60337;BME280;46978;50.288;28.624;2023-02-04T05:38:09;98742.44;;;-6.36;96.12
60337;BME280;46978;50.288;28.624;2023-02-04T05:39:11;98740.77;;;-6.35;96.11
60337;BME280;46978;50.288;28.624;2023-02-04T05:40:13;98740.81;;;-6.34;96.19
60337;BME280;46978;50.288;28.624;2023-02-04T05:41:15;98750.19;;;-6.31;96.25
60337;BME280;46978;50.288;28.624;2023-02-04T05:42:17;98746.11;;;-6.27;96.37
60337;BME280;46978;50.288;28.624;2023-02-04T05:43:18;98746.22;;;-6.24;96.56